Time;durP1;ratioP1;P1;durP2;ratioP2;P2;SDS_P1;SDS_P2;PMS_P1;PMS_P2;Temp;Humidity;BMP_temperature;BMP_pressure;BME280_temperature;BME280_humidity;BME280_pressure;Samples;Min_cycle;Max_cycle;Signal;HPM_P1;HPM_P2
2022/04/14 00:01:05;;;;;;;46.80;24.00;;;;;;;5.75;39.92;99563.08;105898;1274;113408;-70
2022/04/14 00:03:33;;;;;;;50.30;23.30;;;;;;;5.76;40.00;99565.67;105915;1274;96608;-69
2022/04/14 00:06:00;;;;;;;44.30;22.80;;;;;;;5.78;39.91;99564.36;105962;1274;107710;-69
2022/04/14 00:08:28;;;;;;;47.70;22.50;;;;;;;5.78;39.87;99565.56;105942;1274;99299;-69
2022/04/14 00:10:56;;;;;;;45.50;24.30;;;;;;;5.81;39.79;99561.94;106053;1274;99984;-70
2022/04/14 00:13:25;;;;;;;44.20;23.20;;;;;;;5.84;40.01;99566.37;106015;1274;112663;-69
2022/04/14 00:15:53;;;;;;;46.10;23.10;;;;;;;5.87;39.95;99563.80;105979;1274;99233;-69
2022/04/14 00:18:21;;;;;;;43.10;21.30;;;;;;;5.90;39.88;99566.13;105964;1274;107916;-68
2022/04/14 00:20:49;;;;;;;44.10;22.00;;;;;;;5.89;39.99;99565.30;105932;1274;99208;-70
2022/04/14 00:23:16;;;;;;;44.90;23.50;;;;;;;5.86;39.81;99564.52;105966;1274;99191;-69
2022/04/14 00:25:44;;;;;;;46.20;24.20;;;;;;;5.87;39.98;99566.42;106000;1274;112765;-68
2022/04/14 00:28:12;;;;;;;46.50;24.10;;;;;;;5.86;39.82;99565.59;105951;1274;99247;-69
2022/04/14 00:30:40;;;;;;;44.70;22.70;;;;;;;5.82;39.86;99564.34;105986;1274;108319;-67
2022/04/14 00:33:08;;;;;;;45.90;23.10;;;;;;;5.78;39.93;99559.80;105955;1274;96530;-70
2022/04/14 00:35:36;;;;;;;48.00;23.80;;;;;;;5.74;40.03;99553.46;105981;1274;96667;-69
2022/04/14 00:38:04;;;;;;;46.60;22.70;;;;;;;5.66;40.64;99547.66;105966;1274;113383;-70
2022/04/14 00:40:32;;;;;;;49.30;23.20;;;;;;;5.54;41.20;99544.28;105959;1274;99256;-68
2022/04/14 00:43:00;;;;;;;49.80;25.10;;;;;;;5.42;41.48;99549.95;105960;1274;107827;-67
2022/04/14 00:45:29;;;;;;;49.10;23.40;;;;;;;5.30;41.48;99552.39;105946;1274;99330;-69
2022/04/14 00:47:57;;;;;;;49.30;23.90;;;;;;;5.21;41.90;99550.67;106039;1274;99214;-68
2022/04/14 00:50:25;;;;;;;48.40;25.70;;;;;;;5.12;43.05;99547.70;106032;1274;113070;-70
2022/04/14 00:52:55;;;;;;;48.90;24.90;;;;;;;5.00;43.68;99546.59;105952;1272;99216;-69
2022/04/14 00:55:23;;;;;;;48.00;24.50;;;;;;;4.89;44.33;99542.48;105928;1274;107504;-70
2022/04/14 00:57:51;;;;;;;52.10;25.50;;;;;;;4.77;45.10;99539.98;105892;1274;99220;-69
2022/04/14 01:00:19;;;;;;;49.70;25.90;;;;;;;4.64;45.27;99541.39;105958;1274;99318;-70
2022/04/14 01:02:48;;;;;;;50.00;27.10;;;;;;;4.50;45.59;99541.25;105914;1273;112689;-67
2022/04/14 01:05:17;;;;;;;51.90;25.70;;;;;;;4.40;46.16;99536.08;105980;1274;99219;-69
2022/04/14 01:07:45;;;;;;;51.40;24.90;;;;;;;4.29;46.44;99537.17;105968;1274;108221;-69
2022/04/14 01:10:13;;;;;;;48.30;24.00;;;;;;;4.17;46.72;99536.08;105994;1274;99230;-69
2022/04/14 01:12:42;;;;;;;48.70;24.80;;;;;;;4.10;46.59;99535.80;105981;1274;96641;-69
2022/04/14 01:15:12;;;;;;;46.90;23.50;;;;;;;4.06;46.52;99541.20;105909;1274;112826;-69
2022/04/14 01:17:41;;;;;;;46.40;23.40;;;;;;;4.03;47.19;99539.76;105973;1274;99374;-70
2022/04/14 01:20:13;;;;;;;44.60;21.10;;;;;;;3.99;47.66;99537.10;105931;1274;107751;-69
2022/04/14 01:22:56;;;;;;;46.00;21.00;;;;;;;3.97;48.15;99532.80;105968;1274;99221;-69
2022/04/14 01:25:26;;;;;;;45.40;22.00;;;;;;;3.95;48.54;99534.27;106042;1274;97871;-68
2022/04/14 01:27:54;;;;;;;40.30;19.20;;;;;;;3.93;47.76;99534.16;105951;1274;112777;-70
2022/04/14 01:30:22;;;;;;;41.80;18.80;;;;;;;3.93;47.02;99531.02;105984;1273;97768;-70
2022/04/14 01:32:50;;;;;;;34.30;16.40;;;;;;;4.00;47.13;99525.65;105945;1274;107783;-70
2022/04/14 01:35:18;;;;;;;33.40;15.30;;;;;;;4.08;46.75;99523.57;105915;1274;96565;-70
2022/04/14 01:37:46;;;;;;;36.50;17.30;;;;;;;4.18;47.43;99526.36;106024;1277;97722;-65
2022/04/14 01:40:14;;;;;;;38.00;16.40;;;;;;;4.21;46.94;99528.02;105929;1273;112522;-69
2022/04/14 01:42:42;;;;;;;40.70;17.20;;;;;;;4.25;46.66;99529.81;106034;1274;99229;-69
2022/04/14 01:45:10;;;;;;;33.30;15.70;;;;;;;4.30;46.42;99527.31;106006;1274;108408;-67
2022/04/14 01:47:39;;;;;;;35.00;15.20;;;;;;;4.36;46.09;99522.50;105974;1274;99241;-69
2022/04/14 01:50:10;;;;;;;34.70;16.40;;;;;;;4.41;46.05;99523.70;105938;1274;99232;-68
2022/04/14 01:52:39;;;;;;;37.90;16.80;;;;;;;4.46;45.79;99527.55;106064;1273;112783;-70
2022/04/14 01:55:09;;;;;;;43.80;22.00;;;;;;;4.49;45.91;99531.30;106076;1274;96645;-70
2022/04/14 01:57:37;;;;;;;47.00;21.50;;;;;;;4.49;45.85;99529.89;105946;1274;108906;-70
2022/04/14 02:00:07;;;;;;;46.20;24.30;;;;;;;4.47;45.62;99528.72;105919;1274;96632;-69
2022/04/14 02:02:35;;;;;;;46.90;23.10;;;;;;;4.45;45.41;99525.81;105989;1277;96523;-69
2022/04/14 02:05:04;;;;;;;51.70;23.30;;;;;;;4.47;45.47;99525.92;105919;1274;112662;-69
2022/04/14 02:07:32;;;;;;;39.60;19.20;;;;;;;4.49;45.38;99528.83;106130;1274;99441;-72
2022/04/14 02:10:00;;;;;;;38.40;17.30;;;;;;;4.50;45.12;99533.38;106039;1274;108376;-69
2022/04/14 02:12:29;;;;;;;43.80;22.50;;;;;;;4.46;45.24;99531.23;106001;1274;99310;-69
2022/04/14 02:15:02;;;;;;;48.60;26.20;;;;;;;4.44;45.51;99532.71;105911;1274;99247;-69
2022/04/14 02:17:30;;;;;;;54.60;30.00;;;;;;;4.40;45.17;99531.30;106092;1274;112433;-68
2022/04/14 02:19:58;;;;;;;53.00;26.70;;;;;;;4.31;45.13;99536.02;106036;1274;99221;-68
2022/04/14 02:22:25;;;;;;;54.10;26.70;;;;;;;4.29;45.39;99533.98;106013;1274;108183;-70
2022/04/14 02:24:53;;;;;;;57.40;29.20;;;;;;;4.27;45.12;99525.30;105992;1274;97919;-69
2022/04/14 02:27:21;;;;;;;55.90;29.80;;;;;;;4.26;45.14;99520.09;105951;1274;99329;-69
2022/04/14 02:29:49;;;;;;;47.10;23.40;;;;;;;4.26;45.42;99518.35;106030;1274;113527;-68
2022/04/14 02:32:17;;;;;;;46.90;23.00;;;;;;;4.24;45.09;99515.09;105990;1274;99251;-68
2022/04/14 02:34:45;;;;;;;45.10;23.70;;;;;;;4.21;45.27;99515.02;105870;1274;107633;-70
2022/04/14 02:37:13;;;;;;;48.30;24.10;;;;;;;4.18;45.40;99512.68;105853;1276;98123;-69
2022/04/14 02:39:41;;;;;;;51.30;24.90;;;;;;;4.12;46.13;99515.89;105925;1277;99205;-70
2022/04/14 02:42:08;;;;;;;49.10;26.20;;;;;;;4.02;46.31;99511.37;105916;1274;112686;-71
2022/04/14 02:44:36;;;;;;;50.80;26.90;;;;;;;3.92;46.23;99511.21;105907;1274;99082;-69
2022/04/14 02:47:05;;;;;;;48.20;25.90;;;;;;;3.86;46.45;99511.77;105892;1272;108395;-71
2022/04/14 02:49:32;;;;;;;50.50;25.00;;;;;;;3.81;46.75;99511.11;106008;1274;99295;-70
2022/04/14 02:52:00;;;;;;;49.70;25.30;;;;;;;3.73;46.23;99515.41;105935;1274;100164;-70
2022/04/14 02:54:28;;;;;;;47.50;22.70;;;;;;;3.69;46.32;99514.33;106025;1274;113427;-69
2022/04/14 02:56:56;;;;;;;46.50;23.30;;;;;;;3.71;46.25;99514.81;105994;1274;97756;-67
2022/04/14 02:59:24;;;;;;;49.40;25.30;;;;;;;3.73;46.47;99511.71;105904;1274;108415;-70
2022/04/14 03:01:51;;;;;;;47.90;25.00;;;;;;;3.77;46.74;99512.48;105899;1274;99226;-69
2022/04/14 03:04:19;;;;;;;47.10;24.70;;;;;;;3.81;46.30;99509.01;105962;1274;99254;-69
2022/04/14 03:06:47;;;;;;;45.30;23.10;;;;;;;3.85;46.48;99512.89;105903;1274;112803;-69
2022/04/14 03:09:15;;;;;;;46.90;24.70;;;;;;;3.83;46.45;99511.89;105951;1274;99285;-69
2022/04/14 03:11:43;;;;;;;50.30;25.40;;;;;;;3.79;47.08;99506.63;105946;1274;108375;-70
2022/04/14 03:14:11;;;;;;;55.20;28.90;;;;;;;3.72;47.78;99502.63;106036;1274;99303;-69
2022/04/14 03:16:39;;;;;;;58.50;28.50;;;;;;;3.65;48.42;99501.87;106052;1274;99245;-69
2022/04/14 03:19:07;;;;;;;59.40;30.90;;;;;;;3.60;49.18;99502.59;105977;1274;112697;-69
2022/04/14 03:21:35;;;;;;;58.40;31.40;;;;;;;3.56;49.94;99499.39;105983;1274;99080;-67
2022/04/14 03:24:03;;;;;;;58.20;32.80;;;;;;;3.55;50.63;99497.31;105999;1274;108807;-70
2022/04/14 03:26:31;;;;;;;62.30;31.70;;;;;;;3.52;50.49;99500.07;106002;1274;97603;-70
2022/04/14 03:28:59;;;;;;;57.30;30.80;;;;;;;3.51;50.84;99496.75;105900;1274;99274;-69
2022/04/14 03:31:27;;;;;;;59.80;29.40;;;;;;;3.52;51.00;99498.33;105924;1274;112860;-72
2022/04/14 03:33:55;;;;;;;57.50;30.50;;;;;;;3.48;51.18;99500.39;106053;1274;99336;-69
2022/04/14 03:36:23;;;;;;;57.00;29.90;;;;;;;3.42;50.64;99501.48;105991;1274;106561;-68
2022/04/14 03:38:51;;;;;;;54.30;28.10;;;;;;;3.39;50.21;99500.68;105921;1274;99242;-71
2022/04/14 03:41:19;;;;;;;53.70;27.40;;;;;;;3.38;49.94;99501.45;105927;1274;173512;-72
2022/04/14 03:43:47;;;;;;;52.20;24.40;;;;;;;3.37;49.59;99497.63;106037;1274;112586;-70
2022/04/14 03:46:15;;;;;;;50.90;22.40;;;;;;;3.38;49.78;99493.92;105955;1274;99248;-69
2022/04/14 03:48:43;;;;;;;42.70;20.40;;;;;;;3.37;50.50;99489.00;105892;1274;108301;-67
2022/04/14 03:51:14;;;;;;;41.00;20.00;;;;;;;3.31;50.83;99487.52;105894;1274;99306;-71
2022/04/14 03:53:42;;;;;;;40.20;19.70;;;;;;;3.17;51.39;99485.70;105871;1274;99174;-67
2022/04/14 03:56:11;;;;;;;37.40;16.80;;;;;;;3.07;51.49;99479.76;105813;1274;113359;-66
2022/04/14 03:58:39;;;;;;;37.80;15.60;;;;;;;3.01;52.05;99480.66;105890;1277;99090;-68
2022/04/14 04:01:07;;;;;;;32.10;15.60;;;;;;;2.97;52.10;99480.95;105867;1274;107810;-69
2022/04/14 04:03:35;;;;;;;33.20;14.70;;;;;;;2.95;52.22;99484.55;105870;1274;99511;-68
2022/04/14 04:06:02;;;;;;;36.30;16.40;;;;;;;2.92;52.31;99487.81;105904;1274;99230;-69
2022/04/14 04:08:30;;;;;;;34.20;16.50;;;;;;;2.87;51.80;99492.52;105880;1274;112542;-68
2022/04/14 04:10:59;;;;;;;40.90;18.00;;;;;;;2.87;52.04;99493.23;105854;1274;99317;-67
2022/04/14 04:13:26;;;;;;;33.10;14.90;;;;;;;2.85;52.61;99490.33;105807;1274;108188;-69
2022/04/14 04:15:54;;;;;;;33.40;15.00;;;;;;;2.84;52.84;99488.08;105853;1274;99311;-71
2022/04/14 04:18:22;;;;;;;33.70;15.20;;;;;;;2.83;53.54;99484.59;105888;1274;96970;-72
2022/04/14 04:20:50;;;;;;;30.80;14.00;;;;;;;2.86;53.51;99486.94;105832;1274;112610;-73
2022/04/14 04:23:18;;;;;;;31.80;13.90;;;;;;;2.91;53.63;99479.23;105826;1274;97282;-70
2022/04/14 04:25:46;;;;;;;28.80;12.90;;;;;;;2.99;53.57;99481.77;105912;1274;107736;-70
2022/04/14 04:28:14;;;;;;;26.70;12.30;;;;;;;3.09;53.57;99477.75;105778;1274;99220;-70
2022/04/14 04:30:42;;;;;;;28.50;11.40;;;;;;;3.21;54.08;99477.70;105876;1274;99641;-69
2022/04/14 04:33:10;;;;;;;27.30;10.30;;;;;;;3.31;53.63;99472.08;105921;1274;112771;-69
2022/04/14 04:35:37;;;;;;;26.80;10.40;;;;;;;3.42;53.58;99473.58;105939;1274;99811;-68
2022/04/14 04:38:05;;;;;;;33.00;12.00;;;;;;;3.54;53.87;99473.68;105914;1274;108498;-68
2022/04/14 04:40:33;;;;;;;29.40;11.40;;;;;;;3.64;53.58;99472.95;106010;1274;99233;-69
2022/04/14 04:43:01;;;;;;;25.20;10.40;;;;;;;3.74;53.23;99472.21;105953;1274;99220;-71
2022/04/14 04:45:29;;;;;;;29.00;10.90;;;;;;;3.84;53.70;99474.33;106001;1273;111668;-69
2022/04/14 04:47:57;;;;;;;26.40;10.50;;;;;;;3.91;53.52;99474.92;105991;1274;101029;-70
2022/04/14 04:50:25;;;;;;;26.00;11.60;;;;;;;3.99;53.21;99475.49;106005;1274;105881;-71
2022/04/14 04:52:54;;;;;;;28.90;11.80;;;;;;;4.07;52.74;99474.13;106007;1274;99309;-71
2022/04/14 04:55:21;;;;;;;26.10;10.70;;;;;;;4.12;52.84;99474.46;106053;1274;99314;-71
2022/04/14 04:57:49;;;;;;;28.80;11.90;;;;;;;4.16;52.61;99475.54;105971;1274;112812;-70
2022/04/14 05:00:17;;;;;;;28.40;11.30;;;;;;;4.20;52.39;99475.02;105929;1274;99336;-70
2022/04/14 05:02:46;;;;;;;26.50;11.60;;;;;;;4.24;52.75;99475.73;105903;1274;107601;-69
2022/04/14 05:05:14;;;;;;;24.80;10.30;;;;;;;4.30;52.70;99476.39;105985;1274;99214;-67
2022/04/14 05:07:41;;;;;;;58.60;28.00;;;;;;;4.35;52.44;99473.05;105948;1274;99197;-70
2022/04/14 05:10:09;;;;;;;76.80;41.10;;;;;;;4.40;52.65;99475.98;105936;1274;112838;-70
2022/04/14 05:12:37;;;;;;;65.20;30.30;;;;;;;4.46;52.16;99474.34;106055;1274;99213;-69
2022/04/14 05:15:06;;;;;;;42.80;21.00;;;;;;;4.52;52.15;99471.80;105938;1274;108400;-70
2022/04/14 05:17:34;;;;;;;68.70;34.50;;;;;;;4.59;52.63;99474.13;105996;1274;99228;-69
2022/04/14 05:20:02;;;;;;;65.90;31.70;;;;;;;4.67;52.50;99474.34;106040;1274;99237;-68
2022/04/14 05:22:30;;;;;;;66.90;32.30;;;;;;;4.74;52.60;99473.70;105944;1274;112742;-68
2022/04/14 05:24:58;;;;;;;40.90;17.80;;;;;;;4.82;52.60;99472.65;105964;1274;98968;-70
2022/04/14 05:27:25;;;;;;;31.00;12.30;;;;;;;4.89;52.46;99470.09;105913;1274;107823;-70
2022/04/14 05:29:55;;;;;;;26.10;10.60;;;;;;;4.95;52.66;99471.23;105975;1274;97322;-70
2022/04/14 05:32:23;;;;;;;26.40;11.20;;;;;;;5.02;52.69;99474.63;105887;1274;99338;-70
2022/04/14 05:34:56;;;;;;;27.40;10.20;;;;;;;5.10;52.58;99477.30;106078;1274;113712;-69
2022/04/14 05:37:24;;;;;;;26.60;9.80;;;;;;;5.18;52.62;99482.73;106035;1274;98946;-70
2022/04/14 05:39:53;;;;;;;24.60;9.40;;;;;;;5.27;52.56;99486.95;106052;1274;107628;-68
2022/04/14 05:42:21;;;;;;;25.00;9.50;;;;;;;5.36;52.68;99485.82;106009;1274;99220;-69
2022/04/14 05:44:49;;;;;;;25.50;10.30;;;;;;;5.45;52.70;99485.05;105999;1274;100363;-71
2022/04/14 05:47:23;;;;;;;23.90;8.50;;;;;;;5.56;52.84;99488.26;106004;1274;112835;-70
2022/04/14 05:49:55;;;;;;;26.40;10.40;;;;;;;5.67;52.75;99488.86;105992;1274;99261;-69
2022/04/14 05:52:23;;;;;;;24.20;8.90;;;;;;;5.78;52.83;99485.88;106013;1274;107620;-68
2022/04/14 05:54:51;;;;;;;22.60;8.80;;;;;;;5.91;52.90;99484.23;105944;1274;99380;-69
2022/04/14 05:57:22;;;;;;;22.20;8.10;;;;;;;6.03;52.72;99486.30;105953;1277;99302;-70
2022/04/14 05:59:50;;;;;;;24.30;8.60;;;;;;;6.17;52.77;99489.36;105932;1274;112790;-70
2022/04/14 06:02:18;;;;;;;24.00;8.40;;;;;;;6.31;52.69;99492.94;105930;1274;99087;-69
2022/04/14 06:04:46;;;;;;;29.30;10.50;;;;;;;6.41;52.56;99493.67;105941;1274;108217;-70
2022/04/14 06:07:14;;;;;;;26.20;8.90;;;;;;;6.50;52.43;99493.96;105983;1274;99329;-69
2022/04/14 06:09:42;;;;;;;22.40;9.30;;;;;;;6.58;52.29;99494.59;106035;1274;100387;-67
2022/04/14 06:12:10;;;;;;;22.00;7.30;;;;;;;6.68;52.21;99495.02;106003;1274;112769;-69
2022/04/14 06:14:50;;;;;;;21.60;7.70;;;;;;;6.80;52.21;99495.84;106025;1274;99931;-68
2022/04/14 06:17:18;;;;;;;22.00;7.80;;;;;;;6.91;52.06;99495.98;106029;1274;107730;-68
2022/04/14 06:19:47;;;;;;;20.40;7.10;;;;;;;6.99;52.25;99495.22;105954;1274;99270;-69
2022/04/14 06:22:15;;;;;;;20.20;8.00;;;;;;;7.09;52.13;99489.45;105924;1277;96596;-68
2022/04/14 06:24:42;;;;;;;19.70;7.60;;;;;;;7.20;51.77;99492.56;105957;1274;113215;-68
2022/04/14 06:27:10;;;;;;;20.60;7.80;;;;;;;7.29;51.51;99490.33;105874;1274;99240;-69
2022/04/14 06:29:38;;;;;;;20.50;8.00;;;;;;;7.38;51.40;99487.39;105973;1274;108491;-72
2022/04/14 06:32:07;;;;;;;18.50;7.40;;;;;;;7.47;51.15;99484.83;105973;1274;99220;-71
2022/04/14 06:34:40;;;;;;;19.70;7.60;;;;;;;7.55;51.14;99485.79;106008;1274;97898;-73
2022/04/14 06:37:08;;;;;;;21.50;8.30;;;;;;;7.65;51.07;99482.84;106008;1274;113527;-70
2022/04/14 06:39:36;;;;;;;23.30;7.00;;;;;;;7.75;50.89;99484.04;106038;1274;99901;-70
2022/04/14 06:42:05;;;;;;;23.30;8.40;;;;;;;7.83;51.07;99481.85;105928;1274;108726;-69
2022/04/14 06:44:33;;;;;;;23.50;8.50;;;;;;;7.93;51.08;99480.61;105990;1277;99232;-69
2022/04/14 06:47:00;;;;;;;22.70;8.60;;;;;;;8.02;51.00;99477.09;106009;1274;97687;-69
2022/04/14 06:49:29;;;;;;;18.10;7.10;;;;;;;8.13;50.72;99477.55;105911;1274;114064;-70
2022/04/14 06:51:57;;;;;;;22.20;7.70;;;;;;;8.24;50.67;99473.23;105931;1274;99316;-70
2022/04/14 06:54:27;;;;;;;21.10;7.50;;;;;;;8.35;50.85;99469.45;105906;1274;107741;-70
2022/04/14 06:56:55;;;;;;;20.40;6.60;;;;;;;8.47;50.52;99471.61;105988;1274;99836;-69
2022/04/14 06:59:23;;;;;;;19.80;6.90;;;;;;;8.61;50.46;99468.30;106030;1274;98929;-71
2022/04/14 07:01:54;;;;;;;16.80;6.00;;;;;;;8.74;50.16;99474.10;105933;1274;112673;-68
2022/04/14 07:04:22;;;;;;;20.60;6.30;;;;;;;8.89;50.13;99472.56;105875;1274;99250;-69
2022/04/14 07:06:50;;;;;;;17.70;6.70;;;;;;;9.03;49.92;99468.86;105825;1274;107795;-70
2022/04/14 07:09:18;;;;;;;20.90;7.70;;;;;;;9.18;50.07;99467.63;105946;1274;99229;-68
2022/04/14 07:11:47;;;;;;;21.70;6.50;;;;;;;9.32;50.15;99464.65;105963;1274;99319;-70
2022/04/14 07:14:15;;;;;;;17.20;5.90;;;;;;;9.45;50.12;99460.70;105974;1274;112353;-67
2022/04/14 07:16:43;;;;;;;18.40;6.10;;;;;;;9.60;50.10;99461.55;106048;1274;99304;-69
2022/04/14 07:19:12;;;;;;;15.20;5.00;;;;;;;9.73;50.07;99460.35;105994;1274;107877;-69
2022/04/14 07:21:40;;;;;;;20.60;5.50;;;;;;;9.93;49.79;99457.52;106005;1274;99849;-69
2022/04/14 07:24:11;;;;;;;14.10;5.50;;;;;;;10.49;49.75;99450.92;106083;1274;99296;-66
2022/04/14 07:26:41;;;;;;;16.20;5.50;;;;;;;11.74;49.71;99451.84;106091;1274;114023;-66
2022/04/14 07:29:11;;;;;;;16.60;5.60;;;;;;;12.86;49.82;99448.61;106060;1277;99307;-65
2022/04/14 07:31:42;;;;;;;14.10;5.50;;;;;;;14.54;49.55;99441.67;106127;1274;109087;-70
2022/04/14 07:34:14;;;;;;;13.20;5.30;;;;;;;16.20;49.83;99438.85;106093;1274;99337;-70
2022/04/14 07:36:44;;;;;;;22.50;6.50;;;;;;;17.57;49.83;99439.38;106131;1277;99193;-68
2022/04/14 07:39:13;;;;;;;16.30;6.10;;;;;;;18.77;49.75;99437.73;106056;1274;114067;-70
2022/04/14 07:41:41;;;;;;;16.80;5.80;;;;;;;19.83;49.76;99439.05;105996;1274;97615;-69
2022/04/14 07:44:09;;;;;;;16.70;5.80;;;;;;;20.74;49.25;99439.52;105953;1274;108775;-70
2022/04/14 07:46:38;;;;;;;17.50;6.10;;;;;;;21.47;48.68;99441.23;105970;1274;99306;-70
2022/04/14 07:49:07;;;;;;;15.50;5.80;;;;;;;22.08;48.93;99441.92;105985;1274;99203;-68
2022/04/14 07:51:36;;;;;;;15.90;6.40;;;;;;;22.64;48.42;99442.55;105998;1274;112591;-69
2022/04/14 07:54:04;;;;;;;18.00;6.40;;;;;;;23.08;48.40;99443.67;106026;1274;97018;-70
2022/04/14 07:56:34;;;;;;;17.80;6.50;;;;;;;23.44;47.78;99444.90;106027;1277;107765;-68
2022/04/14 07:59:03;;;;;;;16.50;6.40;;;;;;;23.92;47.97;99443.80;106124;1274;99322;-70
2022/04/14 08:01:32;;;;;;;18.20;6.20;;;;;;;24.06;46.59;99445.13;106037;1274;99198;-67
2022/04/14 08:04:01;;;;;;;17.20;7.20;;;;;;;24.08;45.56;99449.02;106036;1274;112717;-69
2022/04/14 08:06:31;;;;;;;17.50;6.90;;;;;;;24.27;46.10;99450.05;105993;1274;99208;-70
2022/04/14 08:09:00;;;;;;;17.40;7.70;;;;;;;24.62;45.80;99444.97;106033;1274;107444;-69
2022/04/14 08:11:29;;;;;;;18.60;7.20;;;;;;;24.99;45.20;99443.80;105908;1275;99233;-70
2022/04/14 08:13:59;;;;;;;19.30;7.90;;;;;;;25.21;45.04;99445.34;105968;1274;97088;-71
2022/04/14 08:16:27;;;;;;;18.10;7.50;;;;;;;25.57;44.65;99446.09;106020;1274;112939;-69
2022/04/14 08:18:57;;;;;;;15.80;6.50;;;;;;;25.80;44.01;99443.30;106023;1274;97902;-71
2022/04/14 08:21:25;;;;;;;16.10;6.60;;;;;;;25.92;42.33;99436.92;106037;1274;107758;-70
2022/04/14 08:23:54;;;;;;;17.30;7.40;;;;;;;25.94;42.52;99436.60;106094;1274;99278;-69
2022/04/14 08:26:23;;;;;;;16.00;6.10;;;;;;;26.05;41.26;99437.77;106078;1274;97638;-73
2022/04/14 08:28:55;;;;;;;18.00;6.80;;;;;;;25.95;39.68;99439.67;105931;1274;112653;-69
2022/04/14 08:31:26;;;;;;;15.40;6.70;;;;;;;26.26;40.40;99442.48;105999;1274;99532;-71
2022/04/14 08:33:55;;;;;;;17.60;6.30;;;;;;;26.53;40.01;99436.95;106092;1274;107866;-69
2022/04/14 08:36:23;;;;;;;14.10;6.00;;;;;;;26.67;38.25;99428.98;105943;1275;99320;-69
2022/04/14 08:38:54;;;;;;;15.40;6.00;;;;;;;26.69;38.44;99427.80;106106;1274;99361;-70
2022/04/14 08:41:33;;;;;;;13.50;5.80;;;;;;;26.75;38.49;99424.11;106038;1274;112526;-71
2022/04/14 08:44:02;;;;;;;19.20;6.00;;;;;;;27.15;38.46;99415.92;106042;1274;99581;-69
2022/04/14 08:46:33;;;;;;;13.80;5.40;;;;;;;27.45;38.17;99417.70;105951;1273;107807;-70
2022/04/14 08:49:02;;;;;;;12.00;5.60;;;;;;;27.83;38.13;99412.39;106040;1274;99246;-69
2022/04/14 08:51:33;;;;;;;15.10;5.40;;;;;;;28.38;38.33;99415.59;106056;1274;99259;-70
2022/04/14 08:54:02;;;;;;;14.20;5.50;;;;;;;28.81;36.98;99419.96;105928;1277;113415;-70
2022/04/14 08:56:37;;;;;;;9.00;4.80;;;;;;;28.63;32.85;99418.30;105888;1278;99758;-70
2022/04/14 08:59:06;;;;;;;12.00;5.20;;;;;;;27.92;33.13;99418.02;105906;1274;107751;-70
2022/04/14 09:01:36;;;;;;;12.10;5.30;;;;;;;27.78;33.76;99422.95;105775;1276;99445;-70
2022/04/14 09:04:06;;;;;;;17.50;6.50;;;;;;;27.89;33.80;99416.30;105913;1274;96814;-71
2022/04/14 09:06:34;;;;;;;13.10;5.40;;;;;;;27.94;33.38;99417.75;105937;1274;112704;-70
2022/04/14 09:09:04;;;;;;;12.30;5.00;;;;;;;27.92;32.30;99414.98;105794;1277;100382;-69
2022/04/14 09:11:32;;;;;;;13.50;5.30;;;;;;;27.87;32.75;99412.54;105842;1274;107729;-69
2022/04/14 09:14:02;;;;;;;12.30;5.20;;;;;;;28.05;32.50;99406.44;105882;1274;99270;-70
2022/04/14 09:16:33;;;;;;;16.50;5.60;;;;;;;27.99;30.58;99406.98;105877;1274;99345;-70
2022/04/14 09:19:03;;;;;;;17.90;7.30;;;;;;;27.70;30.55;99402.92;105801;1274;112759;-69
2022/04/14 09:21:34;;;;;;;14.90;6.00;;;;;;;27.81;31.23;99402.92;105739;1274;97801;-69
2022/04/14 09:24:02;;;;;;;14.30;5.80;;;;;;;28.07;30.48;99401.64;105727;1277;108416;-70
2022/04/14 09:26:30;;;;;;;10.30;4.70;;;;;;;28.37;30.79;99398.98;105937;1274;99285;-70
2022/04/14 09:29:10;;;;;;;13.40;4.80;;;;;;;28.67;30.84;99397.22;106154;1274;99210;-72
2022/04/14 09:31:54;;;;;;;13.90;4.70;;;;;;;29.09;30.75;99396.56;105984;1274;111797;-71
2022/04/14 09:34:45;;;;;;;13.60;5.50;;;;;;;29.32;29.84;99394.73;105909;1274;98282;-69
2022/04/14 09:37:13;;;;;;;12.30;4.70;;;;;;;29.23;29.17;99392.70;105878;1274;107115;-71
2022/04/14 09:40:02;;;;;;;10.30;4.40;;;;;;;28.94;28.42;99388.98;105956;1274;99297;-70
2022/04/14 09:42:36;;;;;;;11.30;4.70;;;;;;;28.73;28.62;99389.61;105987;1274;96654;-70
2022/04/14 09:45:33;;;;;;;11.50;4.70;;;;;;;28.83;28.64;99386.48;105956;1274;112832;-71
2022/04/14 09:48:04;;;;;;;14.10;5.30;;;;;;;29.17;28.32;99388.30;106080;1275;99387;-70
2022/04/14 09:50:39;;;;;;;14.50;4.80;;;;;;;29.10;27.50;99386.09;106061;1275;105966;-71
2022/04/14 09:53:16;;;;;;;11.10;5.30;;;;;;;28.81;27.61;99386.09;105999;1274;99325;-70
2022/04/14 09:55:50;;;;;;;12.60;4.90;;;;;;;28.50;26.91;99388.05;105993;1274;99345;-71
2022/04/14 09:58:24;;;;;;;12.10;4.40;;;;;;;27.98;26.55;99388.51;105980;1274;112342;-70
2022/04/14 10:00:55;;;;;;;9.80;4.20;;;;;;;27.57;27.20;99381.15;105966;1277;99204;-70
2022/04/14 10:03:30;;;;;;;10.00;4.10;;;;;;;27.26;27.07;99378.44;105989;1274;107637;-71
2022/04/14 10:06:05;;;;;;;10.80;4.60;;;;;;;26.94;26.17;99373.33;105855;1277;99320;-70
2022/04/14 10:08:51;;;;;;;11.20;4.50;;;;;;;26.39;25.98;99374.18;106077;1274;99239;-71
2022/04/14 10:11:40;;;;;;;9.20;4.30;;;;;;;25.86;25.69;99372.05;106042;1274;112736;-71
2022/04/14 10:14:12;;;;;;;11.40;4.60;;;;;;;25.51;25.96;99371.61;106014;1274;100036;-70
2022/04/14 10:16:42;;;;;;;11.20;4.30;;;;;;;25.25;25.14;99370.02;105992;1274;107556;-71
2022/04/14 10:19:10;;;;;;;8.70;4.10;;;;;;;24.92;24.66;99370.14;105961;1274;99326;-71
2022/04/14 10:21:43;;;;;;;12.30;4.30;;;;;;;24.57;24.74;99366.66;106017;1277;99379;-68
2022/04/14 10:24:19;;;;;;;12.60;4.60;;;;;;;24.26;24.70;99361.48;105934;1274;112298;-70
2022/04/14 10:26:51;;;;;;;14.30;4.60;;;;;;;23.93;24.65;99357.23;106069;1274;99310;-70
2022/04/14 10:29:25;;;;;;;13.00;4.60;;;;;;;23.68;24.69;99353.22;106006;1274;107779;-70
2022/04/14 10:31:54;;;;;;;10.10;4.40;;;;;;;23.55;24.53;99352.72;106028;1274;99214;-70
2022/04/14 10:34:25;;;;;;;9.90;3.90;;;;;;;23.39;24.41;99347.63;106132;1274;99246;-71
2022/04/14 10:36:55;;;;;;;9.30;3.60;;;;;;;23.13;23.84;99341.33;105964;1274;112697;-70
2022/04/14 10:39:28;;;;;;;12.20;4.40;;;;;;;22.90;24.08;99337.18;105984;1274;99211;-70
2022/04/14 10:42:00;;;;;;;11.30;4.20;;;;;;;22.77;24.34;99335.69;105965;1274;107500;-70
2022/04/14 10:44:47;;;;;;;10.30;3.70;;;;;;;22.71;24.16;99328.09;106009;1275;98364;-69
2022/04/14 10:47:42;;;;;;;9.90;4.00;;;;;;;22.68;23.88;99323.30;105992;1274;98020;-70
2022/04/14 10:50:32;;;;;;;10.40;3.90;;;;;;;22.64;23.75;99324.55;106121;1274;112660;-70
2022/04/14 10:53:00;;;;;;;11.30;4.40;;;;;;;22.56;23.96;99322.06;106039;1274;99830;-70
2022/04/14 10:55:45;;;;;;;9.80;3.40;;;;;;;22.54;24.17;99319.20;106014;1273;107513;-70
2022/04/14 10:58:39;;;;;;;10.10;3.70;;;;;;;22.62;24.23;99316.08;105933;1274;99301;-69
2022/04/14 11:01:15;;;;;;;15.60;4.00;;;;;;;22.74;24.24;99311.03;105838;1274;99255;-70
2022/04/14 11:03:49;;;;;;;8.80;4.00;;;;;;;22.72;23.61;99308.45;106082;1274;113764;-69
2022/04/14 11:06:47;;;;;;;9.10;3.40;;;;;;;22.54;22.15;99315.09;106098;1274;99189;-69
2022/04/14 11:09:43;;;;;;;7.50;3.20;;;;;;;22.18;22.46;99316.05;105989;1275;107832;-69
2022/04/14 11:12:19;;;;;;;9.80;3.20;;;;;;;22.03;22.67;99310.02;106055;1277;96685;-70
2022/04/14 11:14:47;;;;;;;6.80;3.10;;;;;;;21.90;22.92;99309.91;106023;1277;99195;-71
2022/04/14 11:17:34;;;;;;;4.70;2.70;;;;;;;21.89;23.12;99307.65;105908;1274;112517;-69
2022/04/14 11:20:23;;;;;;;9.50;3.20;;;;;;;21.88;22.91;99303.25;105920;1274;97196;-69
2022/04/14 11:23:06;;;;;;;8.10;3.20;;;;;;;21.90;23.18;99297.45;105937;1274;108322;-69
2022/04/14 11:25:39;;;;;;;8.50;3.30;;;;;;;21.93;22.42;99296.40;105955;1274;96645;-68
2022/04/14 11:28:22;;;;;;;8.60;3.40;;;;;;;21.90;22.54;99289.30;106057;1274;99711;-69